Skip Navigation Links
NOAA logo - Click to go to the NOAA homepage
NOAA's National Weather Service
Alaska Aviation Weather Unit
  NWS logo - Click to go to the NWS homepage
Left Navbar Graphic     12 AKDT = 20 GMT

   
NOAA is celebrating 200 years of science, service, and stewardship. Visit the NOAA 200th celebration Web site to learn more.
USA.gov is the U.S. Government's official Web portal to all Federal, state and local government Web resources and services.
Facebook
NWS on Facebook

Important Change Regarding the AAWU Web Presence

 

Over the last several months, the AAWU has been working to navigate its webpages to a nationally supported server. Security, as well as other needs, have necessitated the change.  We have been given an extension for the site changeover while we diligently work at addressing feedback received. As of July 14, 2017, aawu.arh.noaa.gov will be discontinued. The new AAWU web address is weather.gov/aawu. It is now live and will run in-parallel with the old site until it is discontinued on July 14, 2017. Please continue to send any feedback or questions regarding the new webpages to nws.ar.aawu.webauthors@noaa.gov.  Thank you for your patience during this time of transition.
AAWU Home :: Display TAF Add Bookmark
SPECI PAVA 251408Z AUTO 27006KT 3/4SM BR OVC002 10/10 A2993 RMK AO2=

SPECI PAVA 251417Z AUTO 27005KT 1 1/4SM BR OVC002 10/10 A2993 RMK
 AO2=

SPECI PAVA 251428Z AUTO 28005KT 3SM BR OVC002 10/10 A2993 RMK AO2=

METAR PAVA 251456Z AUTO 27006KT 4SM BR OVC002 11/10 A2993 RMK AO2
 SLP221 T01060100 53002=

METAR PAVA 251556Z AUTO 30007KT 8SM OVC002 11/11 A2994 RMK AO2
 SLP222 T01060106=

METAR PAVA 251656Z AUTO 28007KT 9SM OVC002 11/11 A2993 RMK AO2
 SLP221 T01110111=

SPECI PAVA 251744Z AUTO 29007KT 10SM OVC004 12/11 A2993 RMK AO2=

METAR PAVA 251756Z AUTO 28008KT 10SM OVC004 11/11 A2993 RMK AO2
 SLP221 T01110106 10117 20100 51000=

METAR PAVA 251856Z AUTO 28009KT 10SM OVC006 12/10 A2994 RMK AO2
 SLP222 T01170100=

METAR PAVA 251956Z AUTO 28010KT 10SM OVC006 12/10 A2994 RMK AO2
 SLP224 T01220100=


NOAA's National Weather Service
Alaska Aviation Weather Unit
6930 Sand Lake Road
Anchorage, AK 99502-1845
Disclaimer
Credits
Glossary
Privacy Policy
About Us
Career Opportunities
Contact AAWU Internet Services Site last modified: April, 17th 2012